Time;durP1;ratioP1;P1;durP2;ratioP2;P2;SDS_P1;SDS_P2;PMS_P1;PMS_P2;Temp;Humidity;BMP_temperature;BMP_pressure;BME280_temperature;BME280_humidity;BME280_pressure;Samples;Min_cycle;Max_cycle;Signal;HPM_P1;HPM_P2
2023/06/09 00:01:35;;;;;;;12.20;5.03;;;13.30;99.90;;;;;;5045219;28;20115;-36
2023/06/09 00:04:09;;;;;;;10.88;4.80;;;13.30;99.90;;;;;;5051665;28;20082;-37
2023/06/09 00:06:35;;;;;;;9.98;5.30;;;13.30;99.90;;;;;;5035107;28;20032;-36
2023/06/09 00:09:06;;;;;;;10.55;5.32;;;13.30;99.90;;;;;;5053656;28;20119;-38
2023/06/09 00:11:32;;;;;;;11.30;5.45;;;13.40;99.90;;;;;;5067784;28;20044;-35
2023/06/09 00:13:58;;;;;;;12.68;5.18;;;13.40;99.90;;;;;;5039977;28;20025;-36
2023/06/09 00:16:24;;;;;;;13.82;5.40;;;13.40;99.90;;;;;;5048880;28;20107;-36
2023/06/09 00:18:53;;;;;;;12.20;5.40;;;13.40;99.90;;;;;;5053816;28;20392;-34
2023/06/09 00:21:19;;;;;;;13.73;6.00;;;13.50;99.90;;;;;;5051178;28;20045;-36
2023/06/09 00:23:46;;;;;;;13.68;5.75;;;13.40;99.90;;;;;;5054159;28;20406;-36
2023/06/09 00:26:13;;;;;;;9.57;5.80;;;13.40;99.90;;;;;;5053684;28;20056;-36
2023/06/09 00:28:39;;;;;;;14.63;6.45;;;13.40;99.90;;;;;;5053641;28;20574;-35
2023/06/09 00:31:06;;;;;;;14.93;5.47;;;13.40;99.90;;;;;;5046901;28;20037;-34
2023/06/09 00:33:31;;;;;;;14.48;5.60;;;13.40;99.90;;;;;;5046786;28;20045;-35
2023/06/09 00:35:57;;;;;;;11.40;5.65;;;13.40;99.90;;;;;;5045542;28;20063;-36
2023/06/09 00:38:23;;;;;;;13.80;5.82;;;13.40;99.90;;;;;;5053437;28;20076;-37
2023/06/09 00:40:52;;;;;;;13.23;5.40;;;13.30;99.90;;;;;;5053673;28;20426;-36
2023/06/09 00:43:18;;;;;;;14.40;5.47;;;13.30;99.90;;;;;;5053876;28;20482;-37
2023/06/09 00:45:44;;;;;;;10.93;5.22;;;13.30;99.90;;;;;;5046302;28;20123;-37
2023/06/09 00:48:11;;;;;;;12.07;5.75;;;13.30;99.90;;;;;;5053781;28;20124;-35
2023/06/09 00:50:38;;;;;;;12.13;5.53;;;13.30;99.90;;;;;;5042171;28;20494;-36
2023/06/09 00:53:04;;;;;;;14.50;5.90;;;13.30;99.90;;;;;;5033386;28;20045;-36
2023/06/09 00:55:32;;;;;;;13.48;5.93;;;13.30;99.90;;;;;;5046655;28;20036;-35
2023/06/09 00:58:00;;;;;;;12.52;5.50;;;13.30;99.90;;;;;;5053530;28;20033;-36
2023/06/09 01:00:27;;;;;;;13.90;6.20;;;13.20;99.90;;;;;;5051723;28;20375;-36
2023/06/09 01:03:00;;;;;;;13.55;5.65;;;13.20;99.90;;;;;;5053704;28;20106;-35
2023/06/09 01:05:28;;;;;;;12.17;6.43;;;13.30;99.90;;;;;;5053377;28;20102;-36
2023/06/09 01:08:21;;;;;;;9.75;6.07;;;13.20;99.90;;;;;;5053203;28;20274;-37
2023/06/09 01:11:02;;;;;;;14.65;5.85;;;13.20;99.90;;;;;;5040522;28;20060;-35
2023/06/09 01:13:39;;;;;;;14.50;5.97;;;13.20;99.90;;;;;;5046159;28;20094;-34
2023/06/09 01:16:21;;;;;;;12.35;6.10;;;13.10;99.90;;;;;;5053301;28;20107;-37
2023/06/09 01:18:49;;;;;;;13.50;6.05;;;13.10;99.90;;;;;;5053541;28;20043;-36
2023/06/09 01:21:43;;;;;;;14.98;6.63;;;13.10;99.90;;;;;;5049204;28;20037;-36
2023/06/09 01:24:33;;;;;;;15.55;6.65;;;13.10;99.90;;;;;;5056777;28;20076;-36
2023/06/09 01:27:02;;;;;;;13.77;5.82;;;13.10;99.90;;;;;;5056827;28;20036;-39
2023/06/09 01:29:30;;;;;;;13.43;6.65;;;13.00;99.90;;;;;;5056664;28;20036;-36
2023/06/09 01:31:57;;;;;;;11.90;5.93;;;13.00;99.90;;;;;;5056811;28;20098;-37
2023/06/09 01:34:23;;;;;;;13.65;6.53;;;13.00;99.90;;;;;;5048526;28;20041;-37
2023/06/09 01:36:51;;;;;;;14.50;6.28;;;13.00;99.90;;;;;;5056825;28;20037;-34
2023/06/09 01:39:17;;;;;;;13.48;6.93;;;12.90;99.90;;;;;;5056599;28;20037;-37
2023/06/09 01:41:43;;;;;;;13.70;7.13;;;12.90;99.90;;;;;;5056564;28;20044;-34
2023/06/09 01:44:09;;;;;;;15.20;6.32;;;12.90;99.90;;;;;;5056504;28;20050;-36
2023/06/09 01:46:34;;;;;;;13.27;6.45;;;12.80;99.90;;;;;;5056516;28;20044;-34
2023/06/09 01:49:19;;;;;;;13.57;6.20;;;12.80;99.90;;;;;;5056326;28;20412;-35
2023/06/09 01:51:51;;;;;;;11.10;5.80;;;12.80;99.90;;;;;;5056131;28;20063;-33
2023/06/09 01:54:24;;;;;;;11.13;6.28;;;12.80;99.90;;;;;;5055847;28;20037;-36
2023/06/09 01:57:02;;;;;;;13.00;6.50;;;12.80;99.90;;;;;;5036504;28;20041;-37
2023/06/09 01:59:39;;;;;;;12.82;6.60;;;12.80;99.90;;;;;;5050608;28;20032;-35
2023/06/09 02:02:07;;;;;;;14.82;6.05;;;12.70;99.90;;;;;;5036271;28;20037;-34
2023/06/09 02:04:35;;;;;;;13.45;6.72;;;12.70;99.90;;;;;;5050007;28;20044;-33
2023/06/09 02:07:04;;;;;;;12.88;6.70;;;12.70;99.90;;;;;;5056234;28;20036;-36
2023/06/09 02:09:30;;;;;;;16.20;6.90;;;12.70;99.90;;;;;;5050865;28;20036;-35
2023/06/09 02:11:56;;;;;;;12.70;7.07;;;12.70;99.90;;;;;;5054322;28;20102;-33
2023/06/09 02:14:22;;;;;;;14.77;7.25;;;12.70;99.90;;;;;;5073088;28;20041;-34
2023/06/09 02:16:48;;;;;;;13.02;6.63;;;12.60;99.90;;;;;;5036319;28;20041;-36
2023/06/09 02:19:16;;;;;;;15.02;7.43;;;12.60;99.90;;;;;;5020720;28;20037;-35
2023/06/09 02:21:41;;;;;;;14.90;6.68;;;12.60;99.90;;;;;;5055495;28;20039;-36
2023/06/09 02:24:07;;;;;;;13.30;7.18;;;12.60;99.90;;;;;;5054109;28;20048;-39
2023/06/09 02:26:34;;;;;;;15.90;7.30;;;12.60;99.90;;;;;;5050518;28;20097;-35
2023/06/09 02:29:00;;;;;;;14.10;7.28;;;12.50;99.90;;;;;;5047561;28;20114;-34
2023/06/09 02:31:26;;;;;;;16.50;6.93;;;12.50;99.90;;;;;;5054668;28;20028;-36
2023/06/09 02:33:52;;;;;;;17.55;7.97;;;12.50;99.90;;;;;;5052116;28;20512;-33
2023/06/09 02:36:21;;;;;;;13.25;7.38;;;12.40;99.90;;;;;;5055607;28;20115;-35
2023/06/09 02:38:47;;;;;;;18.48;9.05;;;12.40;99.90;;;;;;5055317;28;20075;-36
2023/06/09 02:41:12;;;;;;;17.48;7.43;;;12.40;99.90;;;;;;5055489;28;20068;-36
2023/06/09 02:43:38;;;;;;;15.45;8.05;;;12.40;99.90;;;;;;5055730;28;20029;-33
2023/06/09 02:46:04;;;;;;;15.90;7.97;;;12.40;99.90;;;;;;5055404;28;20401;-36
2023/06/09 02:48:30;;;;;;;15.45;7.57;;;12.40;99.90;;;;;;5053034;28;20130;-36
2023/06/09 02:50:56;;;;;;;12.52;7.40;;;12.30;99.90;;;;;;5041281;28;20042;-36
2023/06/09 02:53:21;;;;;;;20.73;8.27;;;12.30;99.90;;;;;;5054350;28;20040;-34
2023/06/09 02:55:48;;;;;;;15.02;7.93;;;12.30;99.90;;;;;;5055417;28;20048;-35
2023/06/09 02:58:14;;;;;;;17.70;8.80;;;12.20;99.90;;;;;;5055551;28;20386;-35
2023/06/09 03:00:44;;;;;;;17.20;8.40;;;12.20;99.90;;;;;;5043330;28;20486;-35
2023/06/09 03:03:11;;;;;;;14.90;7.70;;;12.20;99.90;;;;;;5046912;28;20494;-35
2023/06/09 03:05:40;;;;;;;17.08;7.50;;;12.20;99.90;;;;;;5054805;28;20040;-37
2023/06/09 03:08:08;;;;;;;20.23;9.55;;;12.10;99.90;;;;;;5054866;28;20040;-36
2023/06/09 03:10:34;;;;;;;13.98;8.07;;;12.10;99.90;;;;;;5049038;28;20041;-33
2023/06/09 03:12:59;;;;;;;17.08;8.23;;;12.10;99.90;;;;;;5043107;28;20102;-37
2023/06/09 03:15:25;;;;;;;18.33;8.70;;;12.10;99.90;;;;;;5054376;28;20067;-34
2023/06/09 03:17:51;;;;;;;18.35;7.95;;;12.10;99.90;;;;;;5034801;28;20490;-35
2023/06/09 03:20:19;;;;;;;18.80;7.75;;;12.10;99.90;;;;;;5043843;28;20033;-35
2023/06/09 03:22:45;;;;;;;17.63;8.85;;;12.10;99.90;;;;;;5053489;28;20506;-36
2023/06/09 03:25:12;;;;;;;17.25;7.20;;;12.10;99.90;;;;;;5054488;28;20251;-35
2023/06/09 03:27:38;;;;;;;14.68;7.85;;;12.10;99.90;;;;;;5054822;28;20044;-35
2023/06/09 03:30:05;;;;;;;17.88;8.90;;;12.10;99.90;;;;;;5054680;28;20036;-34
2023/06/09 03:32:31;;;;;;;15.80;8.02;;;12.10;99.90;;;;;;5054403;28;20047;-36
2023/06/09 03:34:57;;;;;;;17.80;8.77;;;12.10;99.90;;;;;;5054348;28;20033;-36
2023/06/09 03:37:22;;;;;;;17.73;8.45;;;12.10;99.90;;;;;;5045533;28;20530;-35
2023/06/09 03:39:48;;;;;;;20.25;8.13;;;12.10;99.90;;;;;;5054100;28;20028;-34
2023/06/09 03:42:14;;;;;;;17.33;7.88;;;12.20;99.90;;;;;;5054296;28;20514;-37
2023/06/09 03:44:40;;;;;;;15.88;8.30;;;12.20;99.90;;;;;;5037433;28;20128;-36
2023/06/09 03:47:06;;;;;;;18.95;8.40;;;12.20;99.90;;;;;;5046012;28;20115;-37
2023/06/09 03:49:32;;;;;;;15.65;7.53;;;12.20;99.90;;;;;;5048137;28;20048;-36
2023/06/09 03:51:57;;;;;;;16.85;8.75;;;12.20;99.90;;;;;;5053762;28;20048;-35
2023/06/09 03:54:23;;;;;;;19.38;8.45;;;12.30;99.90;;;;;;5054464;28;20044;-36
2023/06/09 03:56:49;;;;;;;14.57;8.13;;;12.30;99.90;;;;;;5054279;28;20098;-36
2023/06/09 03:59:15;;;;;;;18.70;8.32;;;12.30;99.90;;;;;;5050498;28;20544;-35
2023/06/09 04:01:42;;;;;;;20.35;8.18;;;12.30;99.90;;;;;;5054276;28;20111;-36
2023/06/09 04:04:08;;;;;;;18.35;8.35;;;12.30;99.90;;;;;;5053671;28;20044;-35
2023/06/09 04:06:35;;;;;;;18.77;8.77;;;12.30;99.90;;;;;;5053444;28;20265;-36
2023/06/09 04:09:02;;;;;;;18.52;8.52;;;12.30;99.90;;;;;;5050374;28;20029;-33
2023/06/09 04:11:29;;;;;;;15.43;8.70;;;12.30;99.90;;;;;;5044469;28;20501;-39
2023/06/09 04:13:56;;;;;;;17.52;8.55;;;12.30;99.90;;;;;;5054199;28;20037;-35
2023/06/09 04:16:21;;;;;;;16.98;8.23;;;12.30;99.90;;;;;;5054068;28;20081;-36
2023/06/09 04:18:47;;;;;;;15.18;8.70;;;12.40;99.90;;;;;;5054096;28;20040;-34
2023/06/09 04:21:14;;;;;;;17.38;8.20;;;12.40;99.90;;;;;;5043195;28;20505;-34
2023/06/09 04:23:40;;;;;;;18.20;8.23;;;12.40;99.90;;;;;;5053735;28;20131;-36
2023/06/09 04:26:08;;;;;;;17.00;8.10;;;12.40;99.90;;;;;;5053379;28;20071;-33
2023/06/09 04:28:34;;;;;;;18.50;8.75;;;12.40;99.90;;;;;;5053593;28;20082;-35
2023/06/09 04:31:00;;;;;;;20.35;9.23;;;12.40;99.90;;;;;;5052556;28;20374;-36
2023/06/09 04:33:26;;;;;;;14.80;8.27;;;12.50;99.90;;;;;;5041281;28;20032;-37
2023/06/09 04:35:54;;;;;;;18.70;10.32;;;12.50;99.90;;;;;;5053101;28;20374;-38
2023/06/09 04:38:23;;;;;;;15.95;8.63;;;12.50;99.90;;;;;;5053549;28;20052;-34
2023/06/09 04:40:49;;;;;;;17.73;9.77;;;12.50;99.90;;;;;;5052755;28;20442;-37
2023/06/09 04:43:16;;;;;;;14.70;8.65;;;12.50;99.90;;;;;;5048496;28;20473;-37
2023/06/09 04:45:43;;;;;;;21.15;9.23;;;12.60;99.90;;;;;;5051541;28;20095;-34
2023/06/09 04:48:09;;;;;;;20.92;9.45;;;12.70;99.90;;;;;;5039587;28;20055;-36
2023/06/09 04:50:36;;;;;;;15.35;8.25;;;12.70;99.90;;;;;;5047810;28;20045;-37
2023/06/09 04:53:06;;;;;;;17.63;8.93;;;12.80;99.90;;;;;;5039882;28;20270;-36
2023/06/09 04:55:32;;;;;;;22.67;9.13;;;12.80;99.90;;;;;;5046927;28;20066;-36
2023/06/09 04:57:58;;;;;;;15.40;8.85;;;12.80;99.90;;;;;;5057635;28;20709;-33
2023/06/09 05:00:27;;;;;;;20.15;9.75;;;12.90;99.90;;;;;;5057524;28;20124;-36
2023/06/09 05:02:54;;;;;;;19.77;9.68;;;12.90;99.90;;;;;;5050892;28;20040;-36
2023/06/09 05:05:20;;;;;;;16.00;8.32;;;13.00;99.90;;;;;;5057471;28;20080;-35
2023/06/09 05:07:46;;;;;;;19.25;9.30;;;13.10;99.90;;;;;;5057290;28;20047;-34
2023/06/09 05:10:12;;;;;;;24.45;9.23;;;13.20;99.90;;;;;;5054378;28;20045;-36
2023/06/09 05:12:39;;;;;;;14.40;8.60;;;13.30;99.90;;;;;;5051910;28;20036;-35
2023/06/09 05:15:06;;;;;;;16.65;8.98;;;13.30;99.90;;;;;;5048544;28;20040;-35
2023/06/09 05:17:41;;;;;;;15.90;8.38;;;13.40;99.90;;;;;;5074210;28;20032;-35
2023/06/09 05:20:10;;;;;;;18.52;8.98;;;13.40;99.90;;;;;;5052431;28;20363;-39
2023/06/09 05:22:37;;;;;;;20.27;9.52;;;13.50;99.90;;;;;;5056835;28;20068;-36
2023/06/09 05:25:03;;;;;;;16.00;9.25;;;13.50;99.90;;;;;;5040126;28;20041;-37
2023/06/09 05:27:29;;;;;;;18.65;8.88;;;13.60;99.90;;;;;;5052039;28;20482;-35
2023/06/09 05:29:56;;;;;;;17.00;9.07;;;13.70;99.90;;;;;;5056833;28;20490;-35
2023/06/09 05:32:22;;;;;;;19.52;9.43;;;13.80;99.90;;;;;;5056630;28;20494;-38
2023/06/09 05:34:47;;;;;;;20.48;9.85;;;13.90;99.90;;;;;;5056887;28;20047;-36
2023/06/09 05:37:15;;;;;;;19.80;10.05;;;14.00;99.90;;;;;;5037770;28;20047;-36
2023/06/09 05:39:41;;;;;;;18.65;9.68;;;14.10;99.90;;;;;;5053615;28;20171;-35
2023/06/09 05:42:08;;;;;;;19.23;9.73;;;14.20;99.90;;;;;;5056773;28;20044;-34
2023/06/09 05:44:34;;;;;;;20.75;9.15;;;14.30;99.90;;;;;;5055946;28;20044;-36
2023/06/09 05:47:00;;;;;;;17.95;9.55;;;14.40;99.90;;;;;;5056748;28;20402;-36
2023/06/09 05:49:26;;;;;;;15.95;9.15;;;14.50;99.90;;;;;;5074692;28;20036;-36
2023/06/09 05:51:51;;;;;;;18.77;9.70;;;14.60;99.90;;;;;;5055342;28;20045;-37
2023/06/09 05:54:18;;;;;;;17.33;9.27;;;14.70;99.90;;;;;;5056235;28;20037;-35
2023/06/09 05:56:45;;;;;;;20.60;10.07;;;14.70;99.90;;;;;;5056449;28;20032;-36
2023/06/09 05:59:12;;;;;;;14.07;8.70;;;14.80;99.90;;;;;;5048083;28;20037;-37
2023/06/09 06:01:38;;;;;;;20.58;10.18;;;14.90;99.90;;;;;;5056002;28;20094;-37
2023/06/09 06:04:03;;;;;;;18.20;9.13;;;15.00;99.90;;;;;;5056046;28;20033;-37
2023/06/09 06:06:30;;;;;;;20.77;10.20;;;15.10;99.90;;;;;;5056105;28;20032;-37
2023/06/09 06:08:56;;;;;;;21.02;9.30;;;15.10;99.90;;;;;;5055628;28;20387;-35
2023/06/09 06:11:22;;;;;;;17.73;9.30;;;15.30;99.90;;;;;;5056316;28;20119;-36
2023/06/09 06:13:47;;;;;;;14.73;8.73;;;15.40;99.90;;;;;;5055206;28;20123;-36
2023/06/09 06:16:13;;;;;;;16.90;9.27;;;15.50;99.90;;;;;;5055062;28;20037;-37
2023/06/09 06:18:39;;;;;;;16.45;8.93;;;15.60;99.90;;;;;;5055783;28;20509;-36
2023/06/09 06:21:05;;;;;;;16.17;9.40;;;15.80;99.90;;;;;;5056040;28;20117;-35
2023/06/09 06:23:31;;;;;;;18.20;9.15;;;15.90;99.90;;;;;;5054961;28;20044;-36
2023/06/09 06:25:57;;;;;;;15.40;8.45;;;15.90;99.90;;;;;;5049209;28;20040;-38
2023/06/09 06:28:23;;;;;;;12.98;7.70;;;16.10;99.90;;;;;;5055154;28;20043;-37
2023/06/09 06:30:50;;;;;;;16.10;8.43;;;16.10;99.90;;;;;;5054837;28;20041;-37
2023/06/09 06:33:15;;;;;;;16.27;8.32;;;16.30;99.90;;;;;;5055134;28;20123;-37
2023/06/09 06:35:41;;;;;;;15.77;8.15;;;16.40;99.90;;;;;;5055020;28;20127;-37
2023/06/09 06:38:07;;;;;;;14.23;8.10;;;16.50;99.90;;;;;;5048468;28;20086;-37
2023/06/09 06:40:33;;;;;;;13.85;7.55;;;16.60;99.90;;;;;;5044710;28;20448;-35
2023/06/09 06:42:58;;;;;;;14.43;8.05;;;16.70;99.90;;;;;;5055807;28;20039;-34
2023/06/09 06:45:26;;;;;;;13.30;7.38;;;16.80;99.90;;;;;;5055678;28;20557;-36
2023/06/09 06:47:53;;;;;;;12.82;7.88;;;16.90;99.90;;;;;;5055546;28;20049;-39
2023/06/09 06:50:19;;;;;;;10.75;7.85;;;17.10;99.90;;;;;;5055746;28;20032;-36
2023/06/09 06:52:46;;;;;;;17.67;8.30;;;17.20;99.90;;;;;;5055456;28;20441;-35
2023/06/09 06:55:11;;;;;;;13.07;7.70;;;17.30;99.90;;;;;;5047786;28;20487;-35
2023/06/09 06:57:38;;;;;;;13.52;8.20;;;17.50;99.90;;;;;;5054618;28;20040;-34
2023/06/09 07:00:12;;;;;;;12.75;8.43;;;17.60;99.90;;;;;;5055094;28;20036;-36
2023/06/09 07:02:38;;;;;;;;;;;17.80;99.90;;;;;;5042947;28;20051;-37
2023/06/09 07:05:06;;;;;;;10.77;7.57;;;17.90;99.90;;;;;;5055367;28;19916;-37
2023/06/09 07:07:32;;;;;;;12.85;7.38;;;18.00;99.90;;;;;;5036273;28;20045;-37
2023/06/09 07:09:58;;;;;;;15.43;8.18;;;18.10;99.90;;;;;;5043262;28;20025;-37
2023/06/09 07:12:24;;;;;;;15.65;8.10;;;18.20;99.90;;;;;;5051233;28;20041;-34
2023/06/09 07:14:50;;;;;;;14.50;7.25;;;18.40;99.90;;;;;;5047872;28;20036;-37
2023/06/09 07:17:16;;;;;;;12.05;7.53;;;18.50;99.90;;;;;;5038846;28;20375;-36
2023/06/09 07:19:42;;;;;;;12.38;7.53;;;18.60;99.90;;;;;;5044215;28;20048;-37
2023/06/09 07:22:09;;;;;;;12.73;7.18;;;18.80;99.90;;;;;;5057242;28;20472;-36
2023/06/09 07:24:34;;;;;;;13.13;7.25;;;18.90;99.90;;;;;;5054280;28;20068;-37
2023/06/09 07:27:00;;;;;;;9.88;6.45;;;19.10;99.90;;;;;;5048742;28;20106;-38
2023/06/09 07:29:27;;;;;;;14.02;6.60;;;19.30;99.90;;;;;;5053993;28;20519;-34
2023/06/09 07:31:53;;;;;;;13.32;7.28;;;19.50;99.90;;;;;;5054340;28;20046;-38
2023/06/09 07:34:18;;;;;;;10.15;6.75;;;19.70;99.90;;;;;;5046999;28;20040;-37
2023/06/09 07:36:50;;;;;;;12.32;7.32;;;19.90;99.90;;;;;;5034541;28;20041;-37
2023/06/09 07:39:17;;;;;;;8.40;5.80;;;20.00;99.90;;;;;;5050803;28;20425;-37
2023/06/09 07:41:43;;;;;;;11.38;6.32;;;20.20;99.90;;;;;;5041275;28;20036;-35
2023/06/09 07:44:09;;;;;;;12.23;6.97;;;20.30;99.90;;;;;;5045433;28;20127;-37
2023/06/09 07:46:35;;;;;;;10.45;6.32;;;20.40;99.90;;;;;;5051496;28;20498;-39
2023/06/09 07:49:01;;;;;;;12.18;6.50;;;20.50;99.90;;;;;;5043536;28;20085;-37
2023/06/09 07:51:29;;;;;;;10.77;7.10;;;20.60;99.90;;;;;;5052253;28;20032;-35
2023/06/09 07:53:55;;;;;;;10.68;6.63;;;20.70;99.90;;;;;;5052806;28;20062;-34
2023/06/09 07:56:21;;;;;;;12.05;6.78;;;20.80;99.90;;;;;;5048903;28;20106;-37
2023/06/09 07:58:49;;;;;;;13.00;6.50;;;21.00;99.90;;;;;;5053246;28;20051;-36
2023/06/09 08:01:15;;;;;;;10.45;6.95;;;21.20;99.90;;;;;;5053288;28;20458;-35
2023/06/09 08:03:41;;;;;;;8.77;6.18;;;21.30;99.90;;;;;;5049195;28;20115;-35
2023/06/09 08:06:08;;;;;;;9.95;6.35;;;21.50;99.90;;;;;;5051941;28;20063;-37
2023/06/09 08:08:34;;;;;;;11.32;7.15;;;21.70;99.90;;;;;;5048054;28;20040;-35
2023/06/09 08:11:00;;;;;;;12.95;6.97;;;21.80;99.90;;;;;;5046013;28;20029;-35
2023/06/09 08:13:27;;;;;;;10.02;6.30;;;22.00;99.90;;;;;;5053298;28;20512;-34
2023/06/09 08:15:53;;;;;;;8.65;6.38;;;22.20;99.90;;;;;;5052077;28;20040;-38
2023/06/09 08:18:19;;;;;;;10.65;6.95;;;22.40;99.90;;;;;;5065807;28;20119;-38
2023/06/09 08:20:45;;;;;;;9.70;6.20;;;22.50;99.90;;;;;;5051059;28;20040;-34
2023/06/09 08:23:11;;;;;;;8.82;5.65;;;22.70;99.90;;;;;;5051350;28;20036;-36
2023/06/09 08:25:37;;;;;;;7.93;5.93;;;22.80;99.90;;;;;;5051065;28;20036;-35
2023/06/09 08:28:03;;;;;;;7.90;5.93;;;23.00;99.90;;;;;;5044544;28;20032;-34
2023/06/09 08:30:29;;;;;;;13.63;6.15;;;23.20;99.90;;;;;;5042262;28;20051;-35
2023/06/09 08:32:54;;;;;;;9.02;6.75;;;23.30;99.90;;;;;;5042801;28;20035;-35
2023/06/09 08:35:23;;;;;;;10.73;6.40;;;23.40;99.90;;;;;;5047471;28;20135;-36
2023/06/09 08:37:50;;;;;;;9.45;6.45;;;23.60;99.90;;;;;;5048434;28;20037;-35
2023/06/09 08:40:16;;;;;;;9.75;6.18;;;23.80;99.90;;;;;;5069256;28;20383;-36
2023/06/09 08:42:45;;;;;;;9.18;6.45;;;23.90;99.90;;;;;;5051905;28;20048;-37
2023/06/09 08:45:11;;;;;;;9.48;6.13;;;24.00;99.90;;;;;;5041311;28;20044;-35
2023/06/09 08:47:40;;;;;;;9.60;6.03;;;24.20;99.90;;;;;;5053000;28;20048;-35
2023/06/09 08:50:07;;;;;;;9.68;6.30;;;24.40;99.90;;;;;;5044276;28;20044;-34
2023/06/09 08:52:33;;;;;;;9.35;6.05;;;24.50;99.90;;;;;;5050610;28;20048;-37
2023/06/09 08:54:59;;;;;;;8.07;5.72;;;24.70;99.90;;;;;;5048235;28;20500;-38
2023/06/09 08:57:26;;;;;;;9.70;6.32;;;25.00;99.90;;;;;;5047833;28;20037;-34
2023/06/09 08:59:52;;;;;;;9.60;6.57;;;25.20;99.90;;;;;;5052102;28;20370;-35
2023/06/09 09:02:18;;;;;;;9.65;6.35;;;25.30;99.90;;;;;;5052020;28;20040;-37
2023/06/09 09:04:45;;;;;;;10.05;6.10;;;25.40;99.90;;;;;;5045213;28;20028;-36
2023/06/09 09:07:12;;;;;;;11.48;6.60;;;25.50;99.90;;;;;;5044268;28;20405;-37
2023/06/09 09:09:38;;;;;;;8.90;5.78;;;25.60;99.90;;;;;;5038016;28;20037;-35
2023/06/09 09:12:05;;;;;;;7.90;5.88;;;25.70;99.90;;;;;;5070023;28;20102;-35
2023/06/09 09:14:31;;;;;;;7.82;6.57;;;25.80;97.60;;;;;;5040840;28;20500;-35
2023/06/09 09:16:57;;;;;;;7.85;5.78;;;26.00;98.20;;;;;;5047527;28;20107;-35
2023/06/09 09:19:27;;;;;;;8.98;5.57;;;26.20;97.90;;;;;;5042395;28;20036;-37
2023/06/09 09:21:55;;;;;;;8.73;6.18;;;26.40;95.40;;;;;;5046236;28;20032;-37
2023/06/09 09:24:29;;;;;;;8.90;5.88;;;26.60;94.20;;;;;;5046538;28;20554;-36
2023/06/09 09:26:58;;;;;;;9.45;5.95;;;26.90;91.60;;;;;;5049680;28;20037;-35
2023/06/09 09:29:28;;;;;;;7.03;5.55;;;27.00;89.50;;;;;;5051258;28;20032;-35
2023/06/09 09:31:58;;;;;;;7.93;5.57;;;27.10;86.50;;;;;;5045975;28;20029;-35
2023/06/09 09:34:31;;;;;;;8.27;6.03;;;27.30;87.00;;;;;;5060649;28;20120;-35
2023/06/09 09:36:57;;;;;;;;;;;27.60;85.60;;;;;;5045887;28;20036;-35
2023/06/09 09:39:24;;;;;;;6.82;5.53;;;27.60;72.90;;;;;;5048546;28;19916;-39
2023/06/09 09:42:08;;;;;;;6.63;6.03;;;27.80;91.00;;;;;;5040438;28;20055;-37
2023/06/09 09:44:41;;;;;;;8.15;6.00;;;27.80;69.10;;;;;;5053252;28;20040;-35
2023/06/09 09:47:10;;;;;;;7.40;6.22;;;27.90;69.60;;;;;;5049447;28;20351;-35
2023/06/09 09:49:36;;;;;;;6.85;5.20;;;28.10;73.30;;;;;;5049661;28;20112;-37
2023/06/09 09:52:06;;;;;;;7.60;5.75;;;28.10;68.10;;;;;;5050360;28;20732;-36
2023/06/09 09:54:36;;;;;;;7.10;5.88;;;28.40;66.10;;;;;;5042975;28;20077;-37
2023/06/09 09:57:03;;;;;;;8.38;5.60;;;28.40;61.80;;;;;;5049848;28;20032;-38
2023/06/09 09:59:29;;;;;;;10.50;6.20;;;28.70;66.60;;;;;;5053196;28;20044;-35
2023/06/09 10:01:56;;;;;;;6.70;6.00;;;28.90;64.80;;;;;;5046830;28;20033;-35
2023/06/09 10:04:25;;;;;;;8.57;6.25;;;29.20;62.30;;;;;;5055708;28;20033;-35
2023/06/09 10:06:58;;;;;;;6.55;5.50;;;29.30;59.20;;;;;;5051346;28;20394;-36
2023/06/09 10:09:25;;;;;;;6.30;5.70;;;29.40;57.70;;;;;;5052102;28;20043;-37
2023/06/09 10:11:55;;;;;;;7.25;5.53;;;29.70;60.00;;;;;;5044801;28;20116;-37
2023/06/09 10:14:21;;;;;;;6.32;5.47;;;29.80;56.40;;;;;;5051372;28;20067;-37
2023/06/09 10:16:52;;;;;;;7.13;5.45;;;30.00;57.00;;;;;;5051010;28;20060;-36
2023/06/09 10:19:18;;;;;;;6.95;5.45;;;30.30;55.10;;;;;;5053220;28;20033;-34
2023/06/09 10:21:46;;;;;;;6.47;5.30;;;30.50;55.50;;;;;;5060477;28;20389;-35
2023/06/09 10:24:12;;;;;;;7.88;5.43;;;30.60;54.60;;;;;;5050111;28;20421;-33
2023/06/09 10:26:38;;;;;;;5.97;5.40;;;30.70;53.50;;;;;;5054957;28;20098;-33
2023/06/09 10:29:09;;;;;;;7.18;5.00;;;30.70;53.40;;;;;;5048292;28;20065;-34
2023/06/09 10:31:42;;;;;;;6.30;5.35;;;30.90;53.40;;;;;;5048982;28;20503;-38
2023/06/09 10:34:09;;;;;;;6.18;5.28;;;31.00;52.80;;;;;;5054035;28;20052;-33
2023/06/09 10:36:38;;;;;;;7.30;5.57;;;31.00;51.20;;;;;;5037372;28;20505;-35
2023/06/09 10:39:17;;;;;;;5.65;5.15;;;30.90;49.80;;;;;;5049766;28;20389;-35
2023/06/09 10:42:07;;;;;;;6.00;4.93;;;30.90;49.50;;;;;;5046651;28;20397;-35
2023/06/09 10:44:53;;;;;;;7.53;4.90;;;30.90;48.40;;;;;;5034912;28;20048;-35
2023/06/09 10:47:45;;;;;;;7.13;5.07;;;31.10;48.80;;;;;;5051830;28;20045;-33
2023/06/09 10:50:24;;;;;;;5.97;4.80;;;31.40;49.80;;;;;;5054702;28;20032;-33
2023/06/09 10:52:53;;;;;;;7.70;4.90;;;31.40;46.80;;;;;;5033676;28;20045;-35
2023/06/09 10:55:21;;;;;;;5.40;5.00;;;31.30;47.80;;;;;;5049550;28;20037;-34
2023/06/09 10:57:47;;;;;;;8.30;5.40;;;31.30;47.20;;;;;;5051754;28;20052;-34
2023/06/09 11:00:16;;;;;;;6.38;5.30;;;31.60;48.20;;;;;;5054212;28;20501;-34
2023/06/09 11:02:46;;;;;;;6.13;5.57;;;31.80;47.30;;;;;;5049955;28;20036;-34
2023/06/09 11:05:12;;;;;;;7.00;5.50;;;31.80;46.60;;;;;;5047022;28;20048;-35
2023/06/09 11:07:49;;;;;;;5.43;4.93;;;31.70;46.10;;;;;;5043558;28;20044;-34
2023/06/09 11:10:25;;;;;;;6.88;4.95;;;31.80;45.50;;;;;;5047219;28;20037;-34
2023/06/09 11:12:52;;;;;;;6.97;5.30;;;31.70;46.70;;;;;;5047109;28;20047;-35
2023/06/09 11:15:20;;;;;;;7.28;5.00;;;32.00;47.70;;;;;;5054520;28;20048;-36
2023/06/09 11:17:51;;;;;;;5.43;4.93;;;32.40;47.70;;;;;;5054206;28;20064;-34
2023/06/09 11:20:24;;;;;;;5.32;4.88;;;32.70;47.60;;;;;;5050573;28;20036;-34
2023/06/09 11:22:50;;;;;;;5.40;4.80;;;33.00;46.10;;;;;;5054347;28;20055;-34
2023/06/09 11:25:18;;;;;;;5.53;4.78;;;33.00;45.20;;;;;;5049259;28;20040;-36
2023/06/09 11:28:07;;;;;;;5.45;4.95;;;33.10;45.30;;;;;;5051714;28;20521;-35
2023/06/09 11:30:33;;;;;;;6.72;4.90;;;33.40;44.60;;;;;;5030618;28;20057;-34
2023/06/09 11:33:04;;;;;;;5.60;5.10;;;33.40;44.00;;;;;;5042253;28;20120;-35
2023/06/09 11:35:39;;;;;;;5.13;4.80;;;33.30;44.80;;;;;;5044917;28;20037;-36
2023/06/09 11:38:10;;;;;;;5.80;5.03;;;33.10;43.50;;;;;;5052500;28;20048;-35
2023/06/09 11:40:38;;;;;;;5.35;4.85;;;32.90;43.20;;;;;;5050047;28;20127;-34
2023/06/09 11:43:09;;;;;;;5.20;4.55;;;33.20;43.20;;;;;;5049587;28;20033;-34
2023/06/09 11:45:36;;;;;;;8.05;5.18;;;33.20;42.90;;;;;;5045741;28;20555;-34
2023/06/09 11:48:05;;;;;;;5.43;4.90;;;33.30;43.70;;;;;;5063097;28;20033;-37
2023/06/09 11:50:42;;;;;;;5.15;4.65;;;33.40;44.00;;;;;;5053449;28;20047;-37
2023/06/09 11:53:16;;;;;;;5.40;4.90;;;33.40;41.80;;;;;;5052959;28;20033;-35
2023/06/09 11:55:43;;;;;;;5.57;4.53;;;33.40;42.30;;;;;;5045162;28;20093;-34
2023/06/09 11:58:10;;;;;;;6.93;4.55;;;33.50;42.40;;;;;;5047366;28;20044;-35
2023/06/09 12:00:41;;;;;;;6.15;4.78;;;33.40;43.00;;;;;;5052402;28;20473;-34
2023/06/09 12:03:07;;;;;;;5.25;4.60;;;33.50;43.00;;;;;;5052993;28;20519;-35
2023/06/09 12:05:33;;;;;;;7.07;4.57;;;33.40;42.60;;;;;;5042479;28;20067;-34
2023/06/09 12:08:00;;;;;;;5.30;4.90;;;33.70;42.60;;;;;;5027513;28;20127;-34
2023/06/09 12:10:27;;;;;;;5.40;5.00;;;33.40;42.00;;;;;;5027036;28;20041;-34
2023/06/09 12:12:57;;;;;;;8.93;4.97;;;33.50;42.20;;;;;;5033434;28;20049;-34
2023/06/09 12:15:25;;;;;;;5.82;4.50;;;33.60;42.80;;;;;;5049860;28;20044;-39
2023/06/09 12:17:57;;;;;;;6.00;5.25;;;33.90;43.10;;;;;;5039667;28;20039;-34
2023/06/09 12:20:27;;;;;;;;;;;34.00;41.70;;;;;;5041569;28;20043;-35
2023/06/09 12:22:58;;;;;;;6.10;5.50;;;34.30;42.40;;;;;;5046238;28;20054;-35
2023/06/09 12:25:25;;;;;;;5.80;5.20;;;34.50;42.30;;;;;;5043511;28;20040;-40
2023/06/09 12:27:56;;;;;;;6.13;5.22;;;34.50;41.60;;;;;;5037614;28;20123;-34
2023/06/09 12:30:39;;;;;;;6.05;5.50;;;34.70;41.40;;;;;;5043176;28;20098;-38
2023/06/09 12:33:10;;;;;;;5.88;5.38;;;34.80;40.70;;;;;;5039368;28;20047;-35
2023/06/09 12:35:40;;;;;;;5.55;5.03;;;34.70;41.00;;;;;;5049870;28;20477;-34
2023/06/09 12:38:10;;;;;;;7.13;5.25;;;34.70;41.60;;;;;;5047565;28;20055;-34
2023/06/09 12:40:49;;;;;;;5.50;5.00;;;35.00;42.00;;;;;;5043248;28;20375;-34
2023/06/09 12:43:17;;;;;;;6.53;5.35;;;35.00;40.80;;;;;;5048603;28;20040;-34
2023/06/09 12:45:45;;;;;;;6.00;5.18;;;35.40;40.00;;;;;;5052954;28;20051;-35